Time;durP1;ratioP1;P1;durP2;ratioP2;P2;SDS_P1;SDS_P2;PMS_P1;PMS_P2;Temp;Humidity;BMP_temperature;BMP_pressure;BME280_temperature;BME280_humidity;BME280_pressure;Samples;Min_cycle;Max_cycle;Signal;HPM_P1;HPM_P2
2022/12/16 00:01:57;;;;;;;25.25;11.68;;;2.90;68.50;;;;;;2370687;54;21320;-74
2022/12/16 00:04:23;;;;;;;23.77;11.40;;;3.00;68.50;;;;;;2371142;54;20969;-75
2022/12/16 00:06:50;;;;;;;24.08;11.63;;;3.00;68.50;;;;;;2370882;54;20985;-73
2022/12/16 00:09:16;;;;;;;21.02;10.77;;;3.00;68.50;;;;;;2351442;53;20949;-73
2022/12/16 00:11:42;;;;;;;22.40;11.30;;;3.00;68.50;;;;;;2371213;53;21331;-74
2022/12/16 00:14:09;;;;;;;23.35;12.05;;;3.00;68.50;;;;;;2411871;52;20942;-76
2022/12/16 00:16:35;;;;;;;26.05;13.07;;;3.00;68.50;;;;;;2371697;53;21057;-75
2022/12/16 00:19:01;;;;;;;27.08;12.20;;;3.00;68.40;;;;;;2372519;52;20965;-73
2022/12/16 00:21:28;;;;;;;21.70;10.52;;;3.00;68.40;;;;;;2383430;52;21340;-73
2022/12/16 00:23:57;;;;;;;22.13;11.23;;;3.00;68.40;;;;;;2371060;53;20936;-74
2022/12/16 00:26:23;;;;;;;22.77;11.77;;;3.00;68.30;;;;;;2371504;54;21021;-76
2022/12/16 00:28:50;;;;;;;29.67;13.35;;;3.00;68.30;;;;;;2370687;54;20937;-76
2022/12/16 00:31:16;;;;;;;22.83;11.27;;;3.00;68.20;;;;;;2381549;52;20946;-75
2022/12/16 00:33:43;;;;;;;21.90;11.02;;;3.00;68.10;;;;;;2370988;53;20953;-74
2022/12/16 00:36:09;;;;;;;24.52;12.25;;;3.00;68.10;;;;;;2370797;53;21475;-74
2022/12/16 00:38:36;;;;;;;25.12;10.85;;;3.00;68.00;;;;;;2403370;52;21053;-75
2022/12/16 00:41:03;;;;;;;23.65;11.23;;;3.00;68.00;;;;;;2371402;53;20958;-74
2022/12/16 00:43:29;;;;;;;25.77;11.68;;;3.00;68.00;;;;;;2534523;52;20934;-72
2022/12/16 00:45:56;;;;;;;21.92;10.80;;;3.00;68.10;;;;;;2383233;52;21558;-74
2022/12/16 00:48:22;;;;;;;23.38;11.15;;;3.00;68.10;;;;;;2371346;54;20938;-74
2022/12/16 00:50:49;;;;;;;28.67;12.93;;;3.00;68.20;;;;;;2370608;54;21002;-73
2022/12/16 00:53:16;;;;;;;27.42;13.20;;;3.00;68.20;;;;;;2401509;52;20917;-75
2022/12/16 00:55:42;;;;;;;24.20;11.80;;;3.00;68.20;;;;;;2512096;52;21045;-75
2022/12/16 00:58:09;;;;;;;25.80;12.73;;;2.90;68.00;;;;;;2377817;52;21306;-74
2022/12/16 01:00:36;;;;;;;22.92;10.60;;;2.90;67.90;;;;;;2382350;52;20942;-73
2022/12/16 01:03:02;;;;;;;21.40;9.98;;;2.90;67.90;;;;;;2371175;54;20961;-74
2022/12/16 01:05:29;;;;;;;23.45;10.77;;;2.90;67.90;;;;;;2371312;54;20986;-75
2022/12/16 01:07:55;;;;;;;23.20;11.23;;;2.90;67.90;;;;;;2365231;54;21265;-76
2022/12/16 01:10:22;;;;;;;22.73;10.80;;;2.90;67.90;;;;;;2438544;52;21411;-76
2022/12/16 01:12:50;;;;;;;23.33;10.98;;;2.90;67.90;;;;;;2369836;54;20949;-73
2022/12/16 01:15:17;;;;;;;24.45;11.20;;;2.90;67.90;;;;;;2371547;54;20942;-74
2022/12/16 01:17:43;;;;;;;22.42;10.43;;;2.90;67.90;;;;;;2623670;52;20921;-75
2022/12/16 01:20:10;;;;;;;23.20;11.15;;;2.90;67.90;;;;;;2414179;52;21513;-76
2022/12/16 01:22:37;;;;;;;20.92;9.82;;;2.90;67.90;;;;;;2435049;52;21447;-71
2022/12/16 01:25:04;;;;;;;24.40;11.07;;;2.90;67.90;;;;;;2371127;54;21340;-77
2022/12/16 01:27:30;;;;;;;27.50;12.18;;;2.80;67.90;;;;;;2430173;52;20950;-76
2022/12/16 01:29:57;;;;;;;25.60;11.93;;;2.80;67.80;;;;;;2371056;53;21006;-74
2022/12/16 01:32:24;;;;;;;22.90;10.85;;;2.80;67.80;;;;;;2442333;52;21025;-75
2022/12/16 01:34:51;;;;;;;24.45;11.20;;;2.80;67.80;;;;;;2371004;54;20938;-73
2022/12/16 01:37:19;;;;;;;22.08;10.75;;;2.80;67.80;;;;;;2429622;52;21667;-72
2022/12/16 01:39:45;;;;;;;22.98;11.18;;;2.80;67.80;;;;;;2371018;54;21013;-73
2022/12/16 01:42:13;;;;;;;22.92;11.55;;;2.80;67.80;;;;;;2514673;52;21010;-72
2022/12/16 01:44:42;;;;;;;20.75;9.75;;;2.80;67.90;;;;;;2371283;54;20973;-74
2022/12/16 01:47:10;;;;;;;23.98;11.80;;;2.80;67.90;;;;;;2623721;52;21534;-72
2022/12/16 01:49:42;;;;;;;19.08;10.02;;;2.80;68.00;;;;;;2371811;54;20930;-75
2022/12/16 01:52:12;;;;;;;25.00;11.38;;;2.80;68.00;;;;;;2371110;54;21022;-73
2022/12/16 01:54:41;;;;;;;20.88;10.25;;;2.70;67.90;;;;;;2371182;54;21054;-74
2022/12/16 01:57:16;;;;;;;21.15;10.93;;;2.70;67.90;;;;;;2554119;52;21574;-72
2022/12/16 01:59:43;;;;;;;24.35;10.73;;;2.70;67.80;;;;;;2377709;54;21332;-73
2022/12/16 02:02:10;;;;;;;23.77;10.52;;;2.70;67.80;;;;;;2595959;52;21007;-76
2022/12/16 02:05:19;;;;;;;24.58;11.20;;;2.80;68.00;;;;;;2371269;54;20997;-75
2022/12/16 02:08:01;;;;;;;23.60;11.52;;;2.70;68.00;;;;;;2405679;52;20958;-71
2022/12/16 02:15:36;;;;;;;20.77;10.02;;;2.70;67.90;;;;;;2371584;53;21001;-74
2022/12/16 02:18:32;;;;;;;21.25;9.50;;;2.70;68.00;;;;;;2371204;54;21340;-77
2022/12/16 02:23:43;;;;;;;21.52;10.10;;;2.70;67.50;;;;;;2371132;54;21005;-77
2022/12/16 02:29:16;;;;;;;20.25;8.98;;;2.70;67.60;;;;;;2624326;52;20966;-75
2022/12/16 02:31:51;;;;;;;18.48;8.48;;;2.60;67.10;;;;;;2373499;54;20934;-77
2022/12/16 02:35:43;;;;;;;25.30;10.50;;;2.60;67.50;;;;;;2557846;52;21307;-73
2022/12/16 02:39:54;;;;;;;19.02;8.88;;;2.60;67.30;;;;;;2371249;54;20933;-76
2022/12/16 02:42:38;;;;;;;19.58;9.48;;;2.50;67.20;;;;;;2429279;52;21632;-75
2022/12/16 02:45:16;;;;;;;22.27;9.73;;;2.50;67.70;;;;;;2371393;54;20921;-73
2022/12/16 02:47:44;;;;;;;21.08;10.25;;;2.50;67.80;;;;;;2382474;52;21523;-75
2022/12/16 02:50:29;;;;;;;19.37;10.20;;;2.50;67.90;;;;;;2371582;54;20933;-77
2022/12/16 02:52:55;;;;;;;25.62;10.85;;;2.50;68.10;;;;;;2578916;52;21064;-74
2022/12/16 02:55:22;;;;;;;23.67;11.38;;;2.50;68.20;;;;;;2371754;54;20921;-75
2022/12/16 02:58:02;;;;;;;23.95;11.18;;;2.50;68.20;;;;;;2623684;52;21018;-76
2022/12/16 03:00:34;;;;;;;22.20;10.15;;;2.50;68.20;;;;;;2624109;52;21009;-74
2022/12/16 03:03:17;;;;;;;25.70;12.00;;;2.50;68.10;;;;;;2371196;52;20962;-73
2022/12/16 03:05:47;;;;;;;;;;;2.50;68.00;;;;;;2374709;54;21321;-75
2022/12/16 03:08:29;;;;;;;20.92;9.80;;;2.50;67.50;;;;;;2613787;52;20059;-75
2022/12/16 03:11:00;;;;;;;20.90;10.20;;;2.50;67.80;;;;;;2371386;54;20945;-76
2022/12/16 03:13:27;;;;;;;21.23;10.38;;;2.50;67.80;;;;;;2599006;52;20989;-72
2022/12/16 03:15:53;;;;;;;22.08;10.80;;;2.40;67.80;;;;;;2580594;52;21362;-74
2022/12/16 03:18:19;;;;;;;24.58;10.95;;;2.40;67.80;;;;;;2371808;54;20974;-73
2022/12/16 03:20:52;;;;;;;26.25;12.05;;;2.40;67.80;;;;;;2371117;54;20926;-74
2022/12/16 03:23:19;;;;;;;;;;;2.40;67.80;;;;;;2374996;54;20942;-77
2022/12/16 03:25:46;;;;;;;23.27;10.35;;;2.40;67.40;;;;;;2411188;52;20182;-74
2022/12/16 03:28:34;;;;;;;25.45;10.95;;;2.40;67.70;;;;;;2413915;52;21479;-71
2022/12/16 03:32:38;;;;;;;22.87;10.50;;;2.40;67.70;;;;;;2487799;52;20934;-75
2022/12/16 03:35:19;;;;;;;19.77;9.88;;;2.30;67.40;;;;;;2371468;53;20902;-74
2022/12/16 03:37:46;;;;;;;20.65;9.57;;;2.40;67.80;;;;;;2623919;52;21363;-75
2022/12/16 03:40:13;;;;;;;22.83;10.65;;;2.30;67.80;;;;;;2458252;52;20998;-76
2022/12/16 03:42:39;;;;;;;22.15;10.68;;;2.30;67.80;;;;;;2387143;52;21001;-76
2022/12/16 03:45:07;;;;;;;22.67;11.12;;;2.30;67.80;;;;;;2371630;54;20934;-76
2022/12/16 03:47:33;;;;;;;24.10;10.85;;;2.30;67.70;;;;;;2371579;52;20966;-71
2022/12/16 03:49:59;;;;;;;25.37;10.73;;;2.30;67.70;;;;;;2624053;52;21367;-76
2022/12/16 03:52:26;;;;;;;23.00;10.48;;;2.30;67.80;;;;;;2371688;54;20914;-75
2022/12/16 03:54:52;;;;;;;24.85;11.50;;;2.30;67.90;;;;;;2459923;52;20981;-75
2022/12/16 03:57:19;;;;;;;24.30;10.65;;;2.30;67.90;;;;;;2624396;52;20985;-74
2022/12/16 03:59:45;;;;;;;27.62;11.80;;;2.30;67.90;;;;;;2371276;54;20917;-78
2022/12/16 04:02:11;;;;;;;21.75;10.50;;;2.30;67.90;;;;;;2371332;54;20914;-76
2022/12/16 04:04:38;;;;;;;23.30;11.38;;;2.30;67.80;;;;;;2371699;53;21293;-75
2022/12/16 04:07:19;;;;;;;21.73;10.10;;;2.30;67.80;;;;;;2624126;52;20981;-75
2022/12/16 04:09:46;;;;;;;24.50;10.73;;;2.30;68.00;;;;;;2623673;52;20921;-73
2022/12/16 04:26:00;;;;;;;21.40;9.70;;;2.20;67.90;;;;;;2412353;52;20962;-75
2022/12/16 04:28:26;;;;;;;21.52;10.38;;;2.30;68.00;;;;;;2624277;52;20921;-75
2022/12/16 04:30:52;;;;;;;24.40;11.25;;;2.20;67.90;;;;;;2371108;54;21497;-75
